Time;durP1;ratioP1;P1;durP2;ratioP2;P2;SDS_P1;SDS_P2;PMS_P1;PMS_P2;Temp;Humidity;BMP_temperature;BMP_pressure;BME280_temperature;BME280_humidity;BME280_pressure;Samples;Min_cycle;Max_cycle;Signal;HPM_P1;HPM_P2
2021/12/08 04:00:42;;;;;;;22.52;14.63;;;4.60;99.90;;;;;;5946129;22;20046;-88
2021/12/08 04:03:08;;;;;;;26.80;16.38;;;4.60;99.90;;;;;;4998153;28;20468;-87
2021/12/08 04:08:40;;;;;;;29.45;16.98;;;4.70;99.90;;;;;;5002103;28;20045;-88
2021/12/08 04:11:09;;;;;;;31.40;16.90;;;4.70;99.90;;;;;;5005942;28;20033;-88
2021/12/08 04:13:58;;;;;;;23.15;14.68;;;4.70;99.90;;;;;;5034146;28;20045;-88
2021/12/08 04:16:28;;;;;;;25.55;14.55;;;4.80;99.90;;;;;;5018000;28;20116;-87
2021/12/08 04:18:57;;;;;;;25.48;15.27;;;4.80;99.90;;;;;;5017971;28;20064;-89
2021/12/08 04:21:24;;;;;;;26.67;14.75;;;4.80;99.90;;;;;;5034654;28;20037;-88
2021/12/08 04:23:50;;;;;;;23.30;15.27;;;4.80;99.90;;;;;;5017473;28;20094;-87
2021/12/08 04:26:22;;;;;;;23.13;14.40;;;4.90;99.90;;;;;;5034355;28;20091;-88
2021/12/08 04:28:48;;;;;;;21.92;14.98;;;4.90;99.90;;;;;;5035276;28;20473;-89
2021/12/08 04:31:23;;;;;;;24.08;14.82;;;4.90;99.90;;;;;;5033956;28;20045;-88
2021/12/08 04:33:53;;;;;;;23.23;14.18;;;4.90;99.90;;;;;;5017584;28;20046;-87
2021/12/08 04:36:21;;;;;;;24.52;13.65;;;4.90;99.90;;;;;;5017819;28;20355;-88
2021/12/08 04:38:51;;;;;;;22.80;13.15;;;4.90;99.90;;;;;;5035087;28;20068;-87
2021/12/08 04:41:28;;;;;;;25.70;13.98;;;4.90;99.90;;;;;;5035308;28;20112;-88
2021/12/08 04:52:19;;;;;;;19.48;12.35;;;5.00;99.90;;;;;;4982196;28;20054;-89
2021/12/08 05:06:06;;;;;;;19.88;12.75;;;5.10;99.90;;;;;;5033614;28;20049;-88
2021/12/08 05:08:41;;;;;;;21.63;12.57;;;5.10;99.90;;;;;;5016185;28;20045;-87
2021/12/08 05:11:15;;;;;;;20.77;11.80;;;5.00;99.90;;;;;;5033930;28;20474;-87
2021/12/08 05:13:43;;;;;;;23.35;12.48;;;5.00;99.90;;;;;;5016661;28;20041;-87
2021/12/08 05:16:10;;;;;;;25.90;12.48;;;5.00;99.90;;;;;;5031956;28;20057;-88
2021/12/08 05:18:39;;;;;;;23.65;12.68;;;5.00;99.90;;;;;;5033007;28;20500;-88
2021/12/08 05:21:20;;;;;;;17.25;11.15;;;4.90;99.90;;;;;;5032948;28;20056;-89
2021/12/08 05:23:50;;;;;;;25.27;13.18;;;4.90;99.90;;;;;;5017140;28;20045;-87
2021/12/08 05:26:24;;;;;;;28.75;14.45;;;4.90;99.90;;;;;;5033264;28;20575;-89
2021/12/08 05:29:00;;;;;;;23.35;12.75;;;4.80;99.90;;;;;;5017330;28;20045;-87
2021/12/08 05:31:31;;;;;;;23.52;13.32;;;4.80;99.90;;;;;;5032910;28;20393;-87
2021/12/08 05:33:57;;;;;;;22.88;12.35;;;4.70;99.90;;;;;;5033904;28;20049;-86
2021/12/08 05:36:24;;;;;;;25.08;12.10;;;4.70;99.90;;;;;;5032920;28;20054;-89
2021/12/08 05:38:51;;;;;;;27.48;13.57;;;4.70;99.90;;;;;;5032646;28;20129;-88
2021/12/08 05:41:22;;;;;;;24.75;12.18;;;4.60;99.90;;;;;;5016291;28;20469;-88
2021/12/08 05:43:49;;;;;;;27.60;12.70;;;4.60;99.90;;;;;;5032933;28;20084;-89
2021/12/08 05:46:17;;;;;;;21.65;12.02;;;4.60;99.90;;;;;;5032660;28;20100;-89
2021/12/08 05:48:46;;;;;;;25.05;13.23;;;4.60;99.90;;;;;;5033871;28;20092;-89
2021/12/08 05:51:16;;;;;;;20.38;12.10;;;4.60;99.90;;;;;;5034136;28;20046;-89
2021/12/08 05:53:46;;;;;;;25.88;12.63;;;4.60;99.90;;;;;;5034701;28;20084;-87
2021/12/08 05:56:13;;;;;;;25.50;13.18;;;4.60;99.90;;;;;;5016186;28;20088;-88
2021/12/08 05:58:39;;;;;;;24.33;12.35;;;4.50;99.90;;;;;;5032889;28;20037;-90
2021/12/08 06:01:15;;;;;;;24.77;13.02;;;4.50;99.90;;;;;;5032280;28;20115;-88
2021/12/08 06:03:41;;;;;;;;;;;4.50;99.90;;;;;;5034369;28;20103;-89
2021/12/08 06:06:07;;;;;;;;;;;4.50;99.90;;;;;;5033143;28;20353;-88
2021/12/08 06:08:33;;;;;;;26.60;12.65;;;4.50;99.90;;;;;;5032458;28;19917;-88
2021/12/08 06:11:01;;;;;;;25.05;12.70;;;4.40;99.90;;;;;;5016174;28;20045;-90
2021/12/08 06:13:27;;;;;;;22.27;12.00;;;4.40;99.90;;;;;;5032532;28;20034;-88
2021/12/08 06:15:53;;;;;;;22.10;12.50;;;4.40;99.90;;;;;;5032442;28;20037;-88
2021/12/08 06:18:23;;;;;;;30.08;12.60;;;4.30;99.90;;;;;;5016389;28;20045;-88
2021/12/08 06:20:52;;;;;;;24.08;12.68;;;4.30;99.90;;;;;;5033742;28;20037;-88
2021/12/08 06:23:18;;;;;;;25.85;12.48;;;4.30;99.90;;;;;;5032893;28;20041;-88
2021/12/08 06:25:44;;;;;;;21.85;11.98;;;4.30;99.90;;;;;;5032417;28;20136;-89
2021/12/08 06:28:10;;;;;;;22.80;11.82;;;4.30;99.90;;;;;;5037385;28;20069;-89
2021/12/08 06:30:40;;;;;;;23.30;10.98;;;4.30;99.90;;;;;;5035191;28;20049;-87
2021/12/08 06:33:06;;;;;;;25.50;12.23;;;4.30;99.90;;;;;;5019456;28;20401;-87
2021/12/08 06:35:40;;;;;;;25.02;11.68;;;4.30;99.90;;;;;;5036399;28;20033;-89
2021/12/08 06:38:08;;;;;;;21.38;11.00;;;4.30;99.90;;;;;;5019836;28;20068;-89
2021/12/08 06:40:55;;;;;;;26.88;10.77;;;4.30;99.90;;;;;;5036423;28;20037;-88
2021/12/08 06:43:25;;;;;;;22.17;10.63;;;4.20;99.90;;;;;;5020334;28;20489;-87
2021/12/08 06:45:55;;;;;;;19.30;10.02;;;4.20;99.90;;;;;;5019777;28;20408;-87
2021/12/08 06:48:25;;;;;;;17.80;9.88;;;4.20;99.90;;;;;;5036326;28;20048;-88
2021/12/08 06:51:06;;;;;;;25.80;10.00;;;4.20;99.90;;;;;;5019354;28;20095;-88
2021/12/08 06:53:33;;;;;;;17.27;9.38;;;4.30;99.90;;;;;;5035887;28;20048;-88
2021/12/08 06:56:12;;;;;;;24.17;10.00;;;4.30;99.90;;;;;;5019586;28;20047;-88
2021/12/08 06:58:41;;;;;;;19.58;9.38;;;4.30;99.90;;;;;;5037190;28;20116;-89
2021/12/08 07:01:46;;;;;;;25.27;8.70;;;4.30;99.90;;;;;;5035766;28;20038;-89
2021/12/08 07:07:00;;;;;;;25.48;9.55;;;4.30;99.90;;;;;;5035006;28;20054;-87
2021/12/08 07:09:49;;;;;;;19.50;8.63;;;4.30;99.90;;;;;;5035793;28;20039;-88
2021/12/08 07:12:17;;;;;;;15.27;7.53;;;4.30;99.90;;;;;;5019389;28;20077;-87
2021/12/08 07:14:52;;;;;;;18.65;6.95;;;4.30;99.90;;;;;;5035382;28;20041;-89
2021/12/08 07:17:22;;;;;;;17.48;7.65;;;4.30;99.90;;;;;;5019481;28;20034;-89
2021/12/08 07:20:02;;;;;;;22.40;6.95;;;4.30;99.90;;;;;;5036802;28;20044;-88
2021/12/08 07:22:30;;;;;;;21.25;6.85;;;4.30;99.90;;;;;;5018807;28;20458;-89
2021/12/08 07:24:59;;;;;;;13.10;6.10;;;4.30;99.90;;;;;;5036757;28;20037;-88
2021/12/08 07:27:28;;;;;;;16.65;6.53;;;4.30;99.90;;;;;;5018986;28;20511;-89
2021/12/08 07:29:58;;;;;;;19.67;6.85;;;4.40;99.90;;;;;;5036528;28;20053;-86
2021/12/08 07:32:28;;;;;;;20.83;7.15;;;4.30;99.90;;;;;;5036033;28;20501;-86
2021/12/08 07:34:55;;;;;;;22.48;6.20;;;4.40;99.90;;;;;;5035783;28;20052;-88
2021/12/08 07:37:26;;;;;;;10.25;5.15;;;4.40;99.90;;;;;;5036085;28;20039;-88
2021/12/08 07:39:59;;;;;;;9.57;4.93;;;4.30;99.90;;;;;;5034585;28;20041;-87
2021/12/08 07:42:41;;;;;;;18.23;6.05;;;4.40;99.90;;;;;;5036453;28;20045;-88
2021/12/08 07:45:11;;;;;;;15.25;4.60;;;4.40;99.90;;;;;;5018117;28;20049;-87
2021/12/08 07:47:40;;;;;;;15.70;5.10;;;4.30;99.90;;;;;;5034538;28;20045;-87
2021/12/08 07:50:23;;;;;;;11.63;4.07;;;4.30;99.90;;;;;;5034575;28;20128;-89
2021/12/08 07:52:51;;;;;;;8.52;4.03;;;4.30;99.90;;;;;;5018228;28;20045;-87
2021/12/08 07:55:25;;;;;;;13.50;4.35;;;4.30;99.90;;;;;;5034893;28;20045;-88
2021/12/08 07:57:51;;;;;;;12.45;3.88;;;4.40;99.90;;;;;;5035307;28;20048;-89
2021/12/08 08:00:24;;;;;;;17.58;4.57;;;4.30;99.90;;;;;;5019061;28;20037;-89
2021/12/08 08:02:50;;;;;;;12.13;3.83;;;4.30;99.90;;;;;;5034538;28;20120;-87
2021/12/08 08:05:17;;;;;;;11.10;3.28;;;4.40;99.90;;;;;;5018078;28;20112;-87
2021/12/08 08:07:44;;;;;;;14.63;3.80;;;4.40;99.90;;;;;;5035670;28;20041;-88
2021/12/08 08:10:15;;;;;;;18.23;4.10;;;4.40;99.90;;;;;;5035379;28;20045;-87
2021/12/08 08:12:43;;;;;;;13.02;3.55;;;4.40;99.90;;;;;;5034003;28;20477;-87
2021/12/08 08:15:15;;;;;;;13.30;3.30;;;4.40;99.90;;;;;;5017701;28;20096;-87
2021/12/08 08:17:45;;;;;;;9.23;3.40;;;4.40;99.90;;;;;;5017498;28;20441;-87
2021/12/08 08:20:34;;;;;;;12.05;3.50;;;4.40;99.90;;;;;;5018802;28;20366;-88
2021/12/08 08:23:01;;;;;;;14.27;3.75;;;4.40;99.90;;;;;;5033847;28;20077;-88
2021/12/08 08:25:32;;;;;;;14.27;3.00;;;4.50;99.90;;;;;;5034619;28;20120;-87
2021/12/08 08:27:59;;;;;;;9.45;3.10;;;4.50;99.90;;;;;;5034893;28;20045;-88
2021/12/08 08:30:30;;;;;;;10.43;3.22;;;4.50;99.90;;;;;;5035334;28;20045;-88
2021/12/08 08:32:57;;;;;;;12.20;3.00;;;4.50;99.90;;;;;;5033680;28;20188;-87
2021/12/08 08:35:46;;;;;;;11.85;2.50;;;4.50;99.90;;;;;;5017484;28;20041;-88
2021/12/08 08:38:18;;;;;;;9.90;2.90;;;4.50;99.90;;;;;;5033160;28;20081;-86
2021/12/08 08:40:48;;;;;;;10.57;2.75;;;4.50;99.90;;;;;;5017095;28;20076;-87
2021/12/08 08:43:15;;;;;;;10.18;3.20;;;4.50;99.90;;;;;;5016942;28;20041;-88
2021/12/08 08:45:52;;;;;;;11.82;2.85;;;4.50;99.90;;;;;;5033302;28;20042;-89
2021/12/08 08:48:26;;;;;;;7.00;2.58;;;4.60;99.90;;;;;;5034785;28;20112;-88
2021/12/08 08:50:59;;;;;;;10.40;2.50;;;4.50;99.90;;;;;;5034475;28;20034;-87
2021/12/08 08:53:31;;;;;;;10.63;2.65;;;4.50;99.90;;;;;;5034167;28;20485;-85
2021/12/08 08:56:07;;;;;;;11.63;2.42;;;4.50;99.90;;;;;;5033881;28;20120;-86
2021/12/08 08:58:34;;;;;;;17.92;4.32;;;4.50;99.90;;;;;;5038855;28;20504;-89
2021/12/08 09:01:08;;;;;;;14.32;2.72;;;4.60;99.90;;;;;;5054918;28;20065;-87
2021/12/08 09:03:40;;;;;;;10.48;3.05;;;4.60;99.90;;;;;;5043100;28;20057;-88
2021/12/08 09:06:19;;;;;;;8.40;2.70;;;4.60;99.90;;;;;;5018147;28;20037;-88
2021/12/08 09:08:46;;;;;;;18.58;3.65;;;4.60;99.90;;;;;;5033972;28;20041;-88
2021/12/08 09:11:22;;;;;;;10.02;2.92;;;4.50;99.90;;;;;;5017117;28;20109;-89
2021/12/08 09:14:10;;;;;;;9.60;2.50;;;4.50;99.90;;;;;;5016791;28;20088;-88
2021/12/08 09:16:41;;;;;;;16.10;3.35;;;4.60;99.90;;;;;;5016866;28;20453;-88
2021/12/08 09:19:12;;;;;;;13.02;2.95;;;4.60;99.90;;;;;;5016812;28;20047;-88
2021/12/08 09:22:09;;;;;;;13.13;2.55;;;4.60;99.90;;;;;;5033176;28;20389;-89
2021/12/08 09:24:45;;;;;;;12.75;2.75;;;4.50;99.90;;;;;;5034372;28;20046;-89
2021/12/08 09:27:17;;;;;;;11.00;2.63;;;4.60;99.90;;;;;;5032939;28;20060;-88
2021/12/08 09:29:50;;;;;;;16.27;3.63;;;4.60;99.90;;;;;;5033379;28;20123;-84
2021/12/08 09:32:36;;;;;;;14.20;3.63;;;4.60;99.90;;;;;;5034038;28;20479;-89
2021/12/08 09:35:25;;;;;;;10.95;2.67;;;4.70;99.90;;;;;;5033069;28;20433;-90
2021/12/08 09:38:00;;;;;;;13.02;2.90;;;4.70;99.90;;;;;;5017354;28;20080;-90
2021/12/08 09:40:37;;;;;;;13.75;3.08;;;4.80;99.90;;;;;;5034197;28;20360;-90
2021/12/08 09:43:15;;;;;;;9.93;2.60;;;4.80;99.90;;;;;;5016642;28;20042;-90
2021/12/08 09:45:50;;;;;;;12.05;2.42;;;4.90;99.90;;;;;;5016747;28;20037;-89
2021/12/08 09:48:16;;;;;;;10.80;2.67;;;4.90;99.90;;;;;;5016735;28;20049;-90
2021/12/08 09:50:42;;;;;;;13.40;2.55;;;5.00;99.90;;;;;;5032550;28;20052;-89
2021/12/08 09:53:09;;;;;;;8.55;2.67;;;5.00;99.90;;;;;;5032942;28;20045;-89
2021/12/08 09:55:35;;;;;;;9.73;2.50;;;5.00;99.90;;;;;;5032820;28;20103;-89
2021/12/08 09:58:02;;;;;;;10.80;2.85;;;5.10;99.90;;;;;;5016496;28;20045;-89
2021/12/08 10:00:40;;;;;;;11.68;2.80;;;5.10;99.90;;;;;;5016358;28;20559;-90
2021/12/08 10:03:07;;;;;;;15.75;3.40;;;5.10;99.90;;;;;;5036593;28;20084;-90
2021/12/08 10:05:36;;;;;;;11.18;2.63;;;5.20;99.90;;;;;;5037860;28;20491;-89
2021/12/08 10:08:04;;;;;;;10.57;2.47;;;5.30;99.90;;;;;;5019978;28;20045;-89
2021/12/08 10:10:31;;;;;;;12.90;2.92;;;5.30;99.90;;;;;;5020294;28;20042;-89
2021/12/08 10:12:57;;;;;;;15.80;4.25;;;5.40;99.90;;;;;;5037604;28;20053;-89
2021/12/08 10:15:24;;;;;;;14.70;3.15;;;5.40;99.90;;;;;;5019727;28;20052;-90
2021/12/08 10:17:52;;;;;;;12.85;3.08;;;5.40;99.90;;;;;;5036484;28;20046;-90
2021/12/08 10:20:22;;;;;;;8.93;2.92;;;5.50;99.90;;;;;;5019778;28;20095;-89
2021/12/08 10:23:07;;;;;;;14.68;3.40;;;5.60;99.90;;;;;;5020188;28;20207;-89
2021/12/08 10:25:38;;;;;;;10.90;2.55;;;5.60;99.90;;;;;;5038196;28;20360;-90
2021/12/08 10:28:05;;;;;;;12.88;2.67;;;5.70;99.90;;;;;;5021014;28;20092;-87
2021/12/08 10:30:34;;;;;;;11.63;2.40;;;5.70;99.90;;;;;;5036904;28;20354;-87
2021/12/08 10:33:07;;;;;;;13.23;2.30;;;5.70;99.90;;;;;;5020883;28;20462;-89
2021/12/08 10:36:03;;;;;;;10.52;2.85;;;5.80;99.90;;;;;;5020061;28;20481;-88
2021/12/08 10:38:38;;;;;;;11.10;3.35;;;5.80;99.90;;;;;;5035418;28;20091;-88
2021/12/08 10:41:06;;;;;;;14.82;3.70;;;5.80;99.90;;;;;;5036437;28;20037;-89
2021/12/08 10:43:31;;;;;;;13.65;2.92;;;5.80;99.90;;;;;;5036241;28;20077;-89
2021/12/08 10:46:01;;;;;;;7.60;2.40;;;5.70;99.90;;;;;;5019375;28;20077;-87
2021/12/08 10:48:33;;;;;;;9.02;2.30;;;5.70;99.90;;;;;;5035910;28;20493;-88
2021/12/08 10:56:36;;;;;;;12.77;2.47;;;5.70;99.90;;;;;;5036907;28;20045;-89
2021/12/08 10:59:02;;;;;;;10.38;3.00;;;5.70;99.90;;;;;;5036021;28;20414;-88
2021/12/08 11:01:28;;;;;;;10.68;2.17;;;5.70;99.90;;;;;;5035774;28;20038;-88
2021/12/08 11:04:08;;;;;;;11.80;2.15;;;5.70;99.90;;;;;;5035594;28;20038;-87
2021/12/08 11:06:37;;;;;;;10.95;1.88;;;5.70;99.90;;;;;;5035600;28;20060;-90
2021/12/08 11:09:11;;;;;;;11.90;2.72;;;5.70;99.90;;;;;;5019599;28;20047;-87
2021/12/08 11:11:43;;;;;;;12.27;2.35;;;5.80;99.90;;;;;;5035351;28;20056;-88
2021/12/08 11:14:10;;;;;;;12.48;2.00;;;5.90;99.90;;;;;;5017938;28;20545;-87
2021/12/08 11:16:42;;;;;;;13.50;2.40;;;5.90;99.90;;;;;;5018972;28;20033;-88
2021/12/08 11:19:19;;;;;;;14.20;2.25;;;5.90;99.90;;;;;;5018429;28;20048;-88
2021/12/08 11:21:55;;;;;;;16.52;3.25;;;5.90;99.90;;;;;;5035044;28;20133;-87
2021/12/08 11:24:31;;;;;;;10.93;2.00;;;6.00;99.90;;;;;;5035206;28;20049;-87
2021/12/08 11:26:58;;;;;;;9.65;2.15;;;5.90;99.90;;;;;;5035108;28;20080;-86
2021/12/08 11:29:28;;;;;;;10.82;3.15;;;5.90;99.90;;;;;;5034925;28;20592;-86
2021/12/08 11:31:59;;;;;;;8.48;1.90;;;5.90;99.90;;;;;;5034892;28;20041;-86
2021/12/08 11:34:27;;;;;;;9.30;2.35;;;5.90;99.90;;;;;;5017848;28;20045;-84
2021/12/08 11:36:56;;;;;;;21.88;2.85;;;5.90;99.90;;;;;;5036213;28;20096;-85
2021/12/08 11:39:26;;;;;;;11.82;2.35;;;5.90;99.90;;;;;;5034888;28;20033;-89
2021/12/08 11:41:59;;;;;;;13.07;2.70;;;5.90;99.90;;;;;;5035506;28;20037;-87
2021/12/08 11:44:29;;;;;;;8.75;2.35;;;5.90;99.90;;;;;;5035145;28;20053;-89
2021/12/08 11:47:04;;;;;;;24.75;4.25;;;5.90;99.90;;;;;;5034754;28;20406;-88
2021/12/08 11:49:30;;;;;;;15.25;3.38;;;5.90;99.90;;;;;;5034654;28;20043;-88
2021/12/08 11:52:10;;;;;;;9.00;2.17;;;5.80;99.90;;;;;;5034506;28;20042;-90
2021/12/08 11:54:48;;;;;;;7.97;2.20;;;5.90;99.90;;;;;;5034030;28;20440;-90
2021/12/08 11:57:22;;;;;;;9.98;2.40;;;5.80;99.90;;;;;;5034237;28;20073;-89
2021/12/08 11:59:55;;;;;;;10.80;3.17;;;5.80;99.90;;;;;;5035341;28;20037;-88
2021/12/08 12:02:24;;;;;;;10.38;2.45;;;5.80;99.90;;;;;;5017292;28;20048;-88
2021/12/08 12:04:50;;;;;;;15.05;2.35;;;5.90;99.90;;;;;;5034114;28;20091;-89
2021/12/08 12:07:16;;;;;;;10.02;2.28;;;5.80;99.90;;;;;;5034715;28;20037;-89
2021/12/08 12:09:43;;;;;;;7.72;2.20;;;5.90;99.90;;;;;;5034679;28;20136;-89
2021/12/08 12:12:10;;;;;;;10.65;2.25;;;5.80;99.90;;;;;;5017774;28;20077;-89
2021/12/08 12:14:36;;;;;;;11.77;2.42;;;5.90;99.90;;;;;;5034064;28;20046;-88
2021/12/08 12:17:03;;;;;;;7.28;2.17;;;5.90;99.90;;;;;;5034348;28;20037;-88
2021/12/08 12:19:39;;;;;;;11.32;2.25;;;5.90;99.90;;;;;;5017993;28;20527;-90
2021/12/08 12:22:23;;;;;;;9.20;2.05;;;5.90;99.90;;;;;;5034454;28;20048;-89
2021/12/08 12:25:06;;;;;;;10.15;2.08;;;5.90;99.90;;;;;;5035479;28;20080;-89
2021/12/08 12:27:39;;;;;;;8.98;2.17;;;5.90;99.90;;;;;;5017703;28;20045;-88
2021/12/08 12:30:18;;;;;;;7.45;2.53;;;5.90;99.90;;;;;;5017527;28;20052;-88
2021/12/08 12:32:52;;;;;;;9.43;1.98;;;6.00;99.90;;;;;;5035194;28;20037;-88
2021/12/08 12:35:29;;;;;;;11.65;3.17;;;6.00;99.90;;;;;;5017564;28;20049;-89
2021/12/08 12:38:03;;;;;;;7.32;1.60;;;6.00;99.90;;;;;;5033822;28;20128;-87
2021/12/08 12:40:46;;;;;;;10.35;2.40;;;6.00;99.90;;;;;;5017048;28;20508;-87
2021/12/08 12:43:27;;;;;;;7.93;1.80;;;6.00;99.90;;;;;;5035081;28;20073;-88
2021/12/08 12:46:12;;;;;;;9.70;1.95;;;6.10;99.90;;;;;;5034102;28;20040;-89
2021/12/08 12:48:38;;;;;;;9.90;2.58;;;6.10;99.90;;;;;;5042793;28;20057;-89
2021/12/08 12:51:08;;;;;;;14.77;2.13;;;6.20;99.90;;;;;;5047249;28;20048;-88
2021/12/08 12:53:39;;;;;;;4.72;1.80;;;6.20;99.90;;;;;;5036949;28;20040;-87
2021/12/08 12:56:34;;;;;;;11.52;2.10;;;6.20;99.90;;;;;;5038531;28;20068;-86
2021/12/08 12:59:11;;;;;;;6.90;1.95;;;6.20;99.90;;;;;;5013339;28;20065;-88
2021/12/08 13:01:43;;;;;;;8.52;1.88;;;6.20;99.90;;;;;;5035212;28;20091;-88
2021/12/08 13:04:24;;;;;;;8.77;2.10;;;6.20;99.90;;;;;;5017406;28;20382;-88
2021/12/08 13:07:05;;;;;;;10.57;2.00;;;6.20;99.90;;;;;;5033844;28;20049;-90
2021/12/08 13:09:37;;;;;;;11.05;2.78;;;6.20;99.90;;;;;;5017079;28;20064;-90
2021/12/08 13:12:08;;;;;;;10.02;2.75;;;6.30;99.90;;;;;;5032929;28;20038;-87
2021/12/08 13:14:34;;;;;;;8.65;2.30;;;6.30;99.90;;;;;;5032838;28;20056;-87
2021/12/08 13:17:26;;;;;;;12.88;2.30;;;6.40;99.90;;;;;;5034825;28;20081;-87
2021/12/08 13:19:58;;;;;;;11.18;2.10;;;6.50;99.90;;;;;;5029992;28;20049;-89
2021/12/08 13:22:44;;;;;;;11.07;2.38;;;6.50;99.90;;;;;;5033045;28;20053;-89
2021/12/08 13:25:22;;;;;;;;;;;6.50;99.90;;;;;;5032888;28;20037;-88
2021/12/08 13:27:54;;;;;;;8.57;2.75;;;6.60;99.90;;;;;;5032781;28;19917;-88
2021/12/08 13:30:21;;;;;;;9.95;3.50;;;6.70;99.90;;;;;;5032590;28;20073;-88
2021/12/08 13:32:47;;;;;;;7.03;3.13;;;6.80;99.90;;;;;;5016112;28;20547;-87
2021/12/08 13:35:35;;;;;;;9.20;3.45;;;6.80;99.90;;;;;;5033687;28;20076;-88
2021/12/08 13:38:00;;;;;;;9.52;3.22;;;6.70;99.90;;;;;;5015856;28;20079;-87
2021/12/08 13:40:44;;;;;;;10.85;3.45;;;6.70;99.90;;;;;;5032577;28;20029;-88
2021/12/08 13:43:30;;;;;;;10.85;3.70;;;6.60;99.90;;;;;;5016285;28;20077;-87
2021/12/08 13:45:56;;;;;;;10.82;3.45;;;6.60;99.90;;;;;;5016019;28;20052;-85
2021/12/08 13:48:24;;;;;;;10.60;3.50;;;6.60;99.90;;;;;;5032153;28;20108;-86
2021/12/08 13:50:50;;;;;;;11.25;3.55;;;6.50;99.90;;;;;;5032396;28;20046;-86
2021/12/08 13:53:16;;;;;;;9.07;3.33;;;6.50;99.90;;;;;;5032139;28;20045;-87
2021/12/08 13:55:54;;;;;;;13.27;3.72;;;6.50;99.90;;;;;;5033447;28;20080;-88
2021/12/08 13:58:21;;;;;;;10.27;3.80;;;6.40;99.90;;;;;;5033564;28;20037;-84
2021/12/08 14:00:55;;;;;;;11.60;3.30;;;6.40;99.90;;;;;;5015912;28;20116;-85
2021/12/08 14:03:23;;;;;;;8.98;2.88;;;6.40;99.90;;;;;;5032276;28;20037;-84
2021/12/08 14:05:57;;;;;;;9.10;2.83;;;6.30;99.90;;;;;;5015692;28;20041;-85
2021/12/08 14:08:25;;;;;;;14.13;3.90;;;6.20;99.90;;;;;;5031896;28;20077;-85
2021/12/08 14:10:54;;;;;;;18.65;3.72;;;6.10;99.90;;;;;;5031667;28;20064;-85
2021/12/08 14:13:25;;;;;;;12.10;2.85;;;6.10;99.90;;;;;;5015161;28;20124;-84
2021/12/08 14:15:55;;;;;;;11.13;3.30;;;6.10;99.90;;;;;;5032162;28;20093;-86
2021/12/08 14:18:34;;;;;;;9.43;3.00;;;6.10;99.90;;;;;;5032144;28;20041;-86
2021/12/08 14:21:04;;;;;;;10.05;3.03;;;6.00;99.90;;;;;;5032570;28;20386;-87
2021/12/08 14:23:33;;;;;;;11.65;3.38;;;6.10;99.90;;;;;;5032317;28;20038;-87
2021/12/08 14:26:08;;;;;;;8.38;3.92;;;6.00;99.90;;;;;;5032323;28;20065;-87
2021/12/08 14:28:57;;;;;;;9.43;2.80;;;6.00;99.90;;;;;;5032566;28;20048;-87
2021/12/08 14:31:28;;;;;;;10.40;3.20;;;6.00;99.90;;;;;;5033387;28;20418;-87
2021/12/08 14:34:04;;;;;;;12.88;2.90;;;6.00;99.90;;;;;;5015583;28;20378;-87
2021/12/08 14:36:40;;;;;;;12.30;3.58;;;5.90;99.90;;;;;;5034265;28;20240;-86
2021/12/08 14:39:17;;;;;;;12.25;3.17;;;5.90;99.90;;;;;;5031656;28;20048;-86
2021/12/08 14:41:42;;;;;;;7.03;3.10;;;5.90;99.90;;;;;;5031492;28;20048;-87
2021/12/08 14:44:17;;;;;;;13.35;3.33;;;5.90;99.90;;;;;;5032243;28;20041;-88
2021/12/08 14:46:45;;;;;;;11.98;4.30;;;5.90;99.90;;;;;;5015824;28;20049;-87
2021/12/08 14:49:16;;;;;;;8.13;3.17;;;5.90;99.90;;;;;;5035893;28;20106;-88
2021/12/08 14:51:42;;;;;;;13.40;3.38;;;5.80;99.90;;;;;;5019095;28;20041;-87
2021/12/08 14:54:13;;;;;;;11.52;3.65;;;5.70;99.90;;;;;;5036851;28;20393;-88
2021/12/08 14:56:40;;;;;;;12.27;4.43;;;5.70;99.90;;;;;;5018794;28;20037;-87
2021/12/08 14:59:06;;;;;;;9.32;3.60;;;5.70;99.90;;;;;;5035628;28;20037;-86
2021/12/08 15:01:33;;;;;;;10.80;3.72;;;5.70;99.90;;;;;;5035312;28;20120;-88
2021/12/08 15:03:59;;;;;;;11.20;3.47;;;5.60;99.90;;;;;;5018615;28;20045;-86
2021/12/08 15:06:25;;;;;;;9.50;3.50;;;5.60;99.90;;;;;;5035249;28;20080;-86
2021/12/08 15:08:51;;;;;;;10.27;3.40;;;5.60;99.90;;;;;;5037379;28;20033;-86
2021/12/08 15:11:24;;;;;;;10.32;3.33;;;5.50;99.90;;;;;;5035330;28;20037;-86
2021/12/08 15:13:50;;;;;;;10.45;3.20;;;5.50;99.90;;;;;;5035186;28;20120;-87
2021/12/08 15:16:20;;;;;;;12.88;3.20;;;5.40;99.90;;;;;;5035294;28;20041;-87
2021/12/08 15:18:52;;;;;;;11.07;3.45;;;5.40;99.90;;;;;;5036809;28;20083;-86
2021/12/08 15:21:40;;;;;;;8.38;3.22;;;5.30;99.90;;;;;;5034948;28;20072;-86
2021/12/08 15:24:09;;;;;;;12.98;3.30;;;5.30;99.90;;;;;;5018358;28;20544;-87
2021/12/08 15:26:35;;;;;;;12.35;3.92;;;5.30;99.90;;;;;;5034670;28;20038;-86
2021/12/08 15:29:04;;;;;;;10.77;3.92;;;5.20;99.90;;;;;;5034775;28;20068;-86
2021/12/08 15:31:37;;;;;;;14.65;4.00;;;5.20;99.90;;;;;;5034327;28;20045;-85
2021/12/08 15:34:33;;;;;;;9.85;3.63;;;5.10;99.90;;;;;;5018208;28;20037;-88
2021/12/08 15:37:13;;;;;;;10.63;4.03;;;5.10;99.90;;;;;;5034476;28;20490;-86
2021/12/08 15:39:40;;;;;;;17.05;5.03;;;5.00;99.90;;;;;;5034493;28;20044;-88
2021/12/08 15:42:09;;;;;;;10.93;4.03;;;5.00;99.90;;;;;;5034130;28;20117;-85
2021/12/08 15:44:37;;;;;;;8.57;3.33;;;5.00;99.90;;;;;;5034369;28;20041;-86
2021/12/08 15:47:10;;;;;;;12.63;3.88;;;5.10;99.90;;;;;;5017615;28;20049;-85
2021/12/08 15:49:39;;;;;;;9.73;3.80;;;5.10;99.90;;;;;;5035426;28;20511;-87
2021/12/08 15:52:13;;;;;;;9.63;3.58;;;5.10;99.90;;;;;;5017768;28;20045;-87
2021/12/08 15:54:40;;;;;;;13.77;3.65;;;5.20;99.90;;;;;;5034278;28;20037;-86
2021/12/08 15:57:17;;;;;;;9.70;3.85;;;5.20;99.90;;;;;;5035733;28;20120;-86
2021/12/08 15:59:46;;;;;;;11.45;3.90;;;5.20;99.90;;;;;;5016989;28;20041;-85
2021/12/08 16:02:25;;;;;;;10.75;3.70;;;5.20;99.90;;;;;;5033965;28;20367;-86
2021/12/08 16:05:08;;;;;;;13.02;3.78;;;5.20;99.90;;;;;;5033447;28;20461;-88
2021/12/08 16:07:35;;;;;;;10.63;3.55;;;5.20;99.90;;;;;;5032865;28;20494;-86
2021/12/08 16:10:01;;;;;;;11.20;4.22;;;5.20;99.90;;;;;;5033074;28;20046;-88
2021/12/08 16:12:32;;;;;;;8.23;3.53;;;5.20;99.90;;;;;;5016376;28;20100;-88
2021/12/08 16:15:01;;;;;;;13.50;3.95;;;5.20;99.90;;;;;;5016390;28;20038;-86
2021/12/08 16:17:36;;;;;;;11.60;3.92;;;5.10;99.90;;;;;;5032937;28;20050;-86
2021/12/08 16:20:12;;;;;;;7.65;3.72;;;5.10;99.90;;;;;;5032672;28;20033;-87
2021/12/08 16:22:38;;;;;;;;;;;5.10;99.90;;;;;;5033673;28;20073;-87
2021/12/08 16:25:04;;;;;;;;;;;5.10;99.90;;;;;;5033443;28;19967;-83
2021/12/08 16:27:31;;;;;;;11.40;3.78;;;5.00;99.90;;;;;;5034234;28;20020;-87
2021/12/08 16:30:00;;;;;;;15.82;4.15;;;5.00;99.90;;;;;;5033216;28;20056;-89
2021/12/08 16:32:28;;;;;;;9.15;4.00;;;5.00;99.90;;;;;;5033094;28;20143;-87
2021/12/08 16:34:57;;;;;;;11.23;4.60;;;5.00;99.90;;;;;;5032482;28;20125;-88
2021/12/08 16:37:25;;;;;;;12.65;4.70;;;4.90;99.90;;;;;;5016066;28;20437;-88
2021/12/08 16:45:16;;;;;;;13.38;5.20;;;4.80;99.90;;;;;;5033902;28;20057;-88
2021/12/08 16:47:42;;;;;;;12.80;5.13;;;4.80;99.90;;;;;;5015713;28;20049;-89
2021/12/08 16:50:13;;;;;;;11.27;4.72;;;4.80;99.90;;;;;;5032485;28;20060;-87
2021/12/08 16:52:44;;;;;;;13.25;4.10;;;4.70;99.90;;;;;;5016012;28;20041;-90
2021/12/08 16:55:13;;;;;;;10.20;4.30;;;4.70;99.90;;;;;;5033759;28;20045;-88
2021/12/08 16:57:43;;;;;;;13.27;4.43;;;4.70;99.90;;;;;;5032457;28;20124;-88
2021/12/08 17:00:11;;;;;;;11.43;4.05;;;4.70;99.90;;;;;;5032253;28;20474;-87
2021/12/08 17:02:37;;;;;;;14.25;4.13;;;4.70;99.90;;;;;;5031857;28;20474;-87
2021/12/08 17:05:03;;;;;;;11.00;3.88;;;4.70;99.90;;;;;;5015469;28;20041;-89
2021/12/08 17:07:29;;;;;;;9.30;4.07;;;4.70;99.90;;;;;;5032132;28;20049;-88
2021/12/08 17:09:55;;;;;;;11.40;4.10;;;4.60;99.90;;;;;;5015648;28;20473;-86
2021/12/08 17:12:22;;;;;;;13.20;4.55;;;4.60;99.90;;;;;;5030820;28;20460;-86
2021/12/08 17:14:48;;;;;;;12.65;5.03;;;4.60;99.90;;;;;;5033223;28;20042;-86
2021/12/08 17:17:14;;;;;;;11.27;4.63;;;4.50;99.90;;;;;;5032429;28;20041;-87
2021/12/08 17:19:40;;;;;;;15.45;4.35;;;4.60;99.90;;;;;;5033067;28;20037;-85
2021/12/08 17:22:05;;;;;;;13.35;5.00;;;4.60;99.90;;;;;;5033256;28;20064;-86
2021/12/08 17:24:35;;;;;;;9.95;3.88;;;4.50;99.90;;;;;;5032970;28;20477;-86
2021/12/08 17:27:02;;;;;;;12.80;4.45;;;4.50;99.90;;;;;;5015041;28;20076;-86
2021/12/08 17:29:28;;;;;;;16.27;4.65;;;4.50;99.90;;;;;;5033476;28;20029;-87
2021/12/08 17:31:53;;;;;;;10.73;3.97;;;4.40;99.90;;;;;;5032745;28;20049;-86
2021/12/08 17:34:19;;;;;;;10.85;4.78;;;4.40;99.90;;;;;;5032623;28;20037;-87
2021/12/08 17:36:45;;;;;;;10.52;4.38;;;4.40;99.90;;;;;;5032671;28;20042;-86
2021/12/08 17:39:12;;;;;;;14.05;4.45;;;4.30;99.90;;;;;;5032163;28;20465;-87
2021/12/08 17:41:39;;;;;;;11.38;3.97;;;4.30;99.90;;;;;;5033551;28;20041;-85
2021/12/08 17:44:04;;;;;;;11.15;4.10;;;4.30;99.90;;;;;;5032591;28;20045;-84
2021/12/08 17:46:31;;;;;;;13.20;4.10;;;4.30;99.90;;;;;;5033939;28;20040;-86